Terminal Aerodrome Forecast
Issued by NWS St Louis, MO

Home | Current Version | Previous Version | Graphics & Text | Print | Product List | Glossary On
Versions: 1 2 3 4 5 6 7 8 9 10 11 12 13 14 15 16 17 18 19 20
282
FTUS43 KLSX 032340
TAFSTL
TAF
KSTL 032340Z 0400/0506 28006KT P6SM SCT100
     FM040200 24006KT P6SM SKC
     FM040800 24012KT P6SM VCSH BKN060
     FM041200 29013G21KT P6SM SCT080
     FM041500 33016G25KT P6SM FEW060
     FM050100 33009KT P6SM SKC=

USA.gov is the U.S. government's official web portal to all federal, state and local government web resources and services.